sensor_id;sensor_type;location;lat;lon;timestamp;temperature;humidity
73955;DHT22;62306;52.516;13.290;2023-12-28T00:01:51;5.50;99.90
73955;DHT22;62306;52.516;13.290;2023-12-28T00:04:18;5.40;99.90
73955;DHT22;62306;52.516;13.290;2023-12-28T00:06:46;5.50;99.90
73955;DHT22;62306;52.516;13.290;2023-12-28T00:09:13;5.40;99.90
73955;DHT22;62306;52.516;13.290;2023-12-28T00:11:40;5.40;99.90
73955;DHT22;62306;52.516;13.290;2023-12-28T00:14:07;5.40;99.90
73955;DHT22;62306;52.516;13.290;2023-12-28T00:16:34;5.40;99.90
73955;DHT22;62306;52.516;13.290;2023-12-28T00:19:03;5.50;99.90
73955;DHT22;62306;52.516;13.290;2023-12-28T00:21:29;5.50;99.90
73955;DHT22;62306;52.516;13.290;2023-12-28T00:23:58;5.40;99.90
73955;DHT22;62306;52.516;13.290;2023-12-28T00:26:24;5.50;99.90
73955;DHT22;62306;52.516;13.290;2023-12-28T00:28:51;5.50;99.90
73955;DHT22;62306;52.516;13.290;2023-12-28T00:31:18;5.50;99.90
73955;DHT22;62306;52.516;13.290;2023-12-28T00:33:45;5.50;99.90
73955;DHT22;62306;52.516;13.290;2023-12-28T00:36:12;5.50;99.90
73955;DHT22;62306;52.516;13.290;2023-12-28T00:38:39;5.50;99.90
73955;DHT22;62306;52.516;13.290;2023-12-28T00:41:07;5.50;99.90
73955;DHT22;62306;52.516;13.290;2023-12-28T00:43:34;5.50;99.90
73955;DHT22;62306;52.516;13.290;2023-12-28T00:46:01;5.50;99.90
73955;DHT22;62306;52.516;13.290;2023-12-28T00:48:28;5.50;99.90
73955;DHT22;62306;52.516;13.290;2023-12-28T00:50:55;5.50;99.90
73955;DHT22;62306;52.516;13.290;2023-12-28T00:53:24;5.50;99.90
73955;DHT22;62306;52.516;13.290;2023-12-28T00:55:51;5.50;99.90
73955;DHT22;62306;52.516;13.290;2023-12-28T00:58:20;5.50;99.90
73955;DHT22;62306;52.516;13.290;2023-12-28T01:00:46;5.50;99.90
73955;DHT22;62306;52.516;13.290;2023-12-28T01:03:13;5.50;99.90
73955;DHT22;62306;52.516;13.290;2023-12-28T01:05:40;5.50;99.90
73955;DHT22;62306;52.516;13.290;2023-12-28T01:08:07;5.50;99.90
73955;DHT22;62306;52.516;13.290;2023-12-28T01:10:34;5.50;99.90
73955;DHT22;62306;52.516;13.290;2023-12-28T01:13:01;5.50;99.90
73955;DHT22;62306;52.516;13.290;2023-12-28T01:15:29;5.50;99.90
73955;DHT22;62306;52.516;13.290;2023-12-28T01:17:56;5.50;99.90
73955;DHT22;62306;52.516;13.290;2023-12-28T01:20:23;5.50;99.90
73955;DHT22;62306;52.516;13.290;2023-12-28T01:22:50;5.50;99.90
73955;DHT22;62306;52.516;13.290;2023-12-28T01:25:17;5.50;99.90
73955;DHT22;62306;52.516;13.290;2023-12-28T01:27:43;5.50;99.90
73955;DHT22;62306;52.516;13.290;2023-12-28T01:30:10;5.50;99.90
73955;DHT22;62306;52.516;13.290;2023-12-28T01:32:39;5.50;99.90
73955;DHT22;62306;52.516;13.290;2023-12-28T01:35:06;5.50;99.90
73955;DHT22;62306;52.516;13.290;2023-12-28T01:37:33;5.50;99.90
73955;DHT22;62306;52.516;13.290;2023-12-28T01:40:00;5.50;99.90
73955;DHT22;62306;52.516;13.290;2023-12-28T01:42:28;5.50;99.90
73955;DHT22;62306;52.516;13.290;2023-12-28T01:44:56;5.50;99.90
73955;DHT22;62306;52.516;13.290;2023-12-28T01:47:23;5.50;99.90
73955;DHT22;62306;52.516;13.290;2023-12-28T01:49:51;5.50;99.90
73955;DHT22;62306;52.516;13.290;2023-12-28T01:52:19;5.50;99.90
73955;DHT22;62306;52.516;13.290;2023-12-28T01:54:47;5.60;99.90
73955;DHT22;62306;52.516;13.290;2023-12-28T01:57:15;5.60;99.90
73955;DHT22;62306;52.516;13.290;2023-12-28T01:59:43;5.60;99.90
73955;DHT22;62306;52.516;13.290;2023-12-28T02:02:11;5.60;99.90
73955;DHT22;62306;52.516;13.290;2023-12-28T02:04:38;5.60;99.90
73955;DHT22;62306;52.516;13.290;2023-12-28T02:07:07;5.70;99.90
73955;DHT22;62306;52.516;13.290;2023-12-28T02:09:34;5.70;99.90
73955;DHT22;62306;52.516;13.290;2023-12-28T02:12:01;5.80;99.90
73955;DHT22;62306;52.516;13.290;2023-12-28T02:14:28;5.80;99.90
73955;DHT22;62306;52.516;13.290;2023-12-28T02:17:00;5.90;99.90
73955;DHT22;62306;52.516;13.290;2023-12-28T02:19:40;6.00;99.90
73955;DHT22;62306;52.516;13.290;2023-12-28T02:22:09;6.00;99.90
73955;DHT22;62306;52.516;13.290;2023-12-28T02:25:06;6.10;99.90
73955;DHT22;62306;52.516;13.290;2023-12-28T02:27:34;6.10;99.90
73955;DHT22;62306;52.516;13.290;2023-12-28T02:30:01;6.20;99.90
73955;DHT22;62306;52.516;13.290;2023-12-28T02:32:39;6.30;99.90
73955;DHT22;62306;52.516;13.290;2023-12-28T02:35:16;6.50;99.90
73955;DHT22;62306;52.516;13.290;2023-12-28T02:37:44;6.50;99.90
73955;DHT22;62306;52.516;13.290;2023-12-28T02:40:16;6.60;99.90
73955;DHT22;62306;52.516;13.290;2023-12-28T02:42:43;6.80;99.90
73955;DHT22;62306;52.516;13.290;2023-12-28T02:45:10;6.90;99.90
73955;DHT22;62306;52.516;13.290;2023-12-28T02:47:37;7.00;99.90
73955;DHT22;62306;52.516;13.290;2023-12-28T02:50:05;7.10;99.90
73955;DHT22;62306;52.516;13.290;2023-12-28T02:52:32;7.20;99.90
73955;DHT22;62306;52.516;13.290;2023-12-28T02:54:59;7.30;99.90
73955;DHT22;62306;52.516;13.290;2023-12-28T02:57:27;7.40;99.90
73955;DHT22;62306;52.516;13.290;2023-12-28T02:59:54;7.50;99.90
73955;DHT22;62306;52.516;13.290;2023-12-28T03:02:22;7.50;99.90
73955;DHT22;62306;52.516;13.290;2023-12-28T03:04:49;7.60;99.90
73955;DHT22;62306;52.516;13.290;2023-12-28T03:07:16;7.60;99.90
73955;DHT22;62306;52.516;13.290;2023-12-28T03:09:43;7.60;99.90
73955;DHT22;62306;52.516;13.290;2023-12-28T03:12:09;7.70;99.90
73955;DHT22;62306;52.516;13.290;2023-12-28T03:14:38;7.70;99.90
73955;DHT22;62306;52.516;13.290;2023-12-28T03:17:04;7.80;99.90
73955;DHT22;62306;52.516;13.290;2023-12-28T03:19:31;7.90;99.90
73955;DHT22;62306;52.516;13.290;2023-12-28T03:21:58;7.90;99.90
73955;DHT22;62306;52.516;13.290;2023-12-28T03:24:25;8.00;99.90
73955;DHT22;62306;52.516;13.290;2023-12-28T03:26:51;8.00;99.90
73955;DHT22;62306;52.516;13.290;2023-12-28T03:29:20;8.00;99.90
73955;DHT22;62306;52.516;13.290;2023-12-28T03:31:48;8.10;99.90
73955;DHT22;62306;52.516;13.290;2023-12-28T03:34:15;8.10;99.90
73955;DHT22;62306;52.516;13.290;2023-12-28T03:36:43;8.20;99.90
73955;DHT22;62306;52.516;13.290;2023-12-28T03:39:10;8.30;99.90
73955;DHT22;62306;52.516;13.290;2023-12-28T03:41:36;8.30;99.90
73955;DHT22;62306;52.516;13.290;2023-12-28T03:44:03;8.30;99.90
73955;DHT22;62306;52.516;13.290;2023-12-28T03:46:30;8.30;99.90
73955;DHT22;62306;52.516;13.290;2023-12-28T03:48:58;8.30;99.90
73955;DHT22;62306;52.516;13.290;2023-12-28T03:51:25;8.40;99.90
73955;DHT22;62306;52.516;13.290;2023-12-28T03:53:52;8.30;99.90
73955;DHT22;62306;52.516;13.290;2023-12-28T03:56:21;8.30;99.90
73955;DHT22;62306;52.516;13.290;2023-12-28T03:58:48;8.30;99.90
73955;DHT22;62306;52.516;13.290;2023-12-28T04:01:18;8.30;99.90
73955;DHT22;62306;52.516;13.290;2023-12-28T04:03:45;8.20;99.90
73955;DHT22;62306;52.516;13.290;2023-12-28T04:06:13;8.20;99.90
73955;DHT22;62306;52.516;13.290;2023-12-28T04:08:41;8.10;99.90
73955;DHT22;62306;52.516;13.290;2023-12-28T04:11:08;8.10;99.90
73955;DHT22;62306;52.516;13.290;2023-12-28T04:13:35;8.10;99.90
73955;DHT22;62306;52.516;13.290;2023-12-28T04:16:02;8.10;99.90
73955;DHT22;62306;52.516;13.290;2023-12-28T04:18:30;8.10;99.90
73955;DHT22;62306;52.516;13.290;2023-12-28T04:20:57;8.20;99.90
73955;DHT22;62306;52.516;13.290;2023-12-28T04:23:25;8.20;99.90
73955;DHT22;62306;52.516;13.290;2023-12-28T04:25:52;8.30;99.90
73955;DHT22;62306;52.516;13.290;2023-12-28T04:28:19;8.20;99.90
73955;DHT22;62306;52.516;13.290;2023-12-28T04:30:45;8.30;99.90
73955;DHT22;62306;52.516;13.290;2023-12-28T04:33:12;8.30;99.90
73955;DHT22;62306;52.516;13.290;2023-12-28T04:35:39;8.40;99.90
73955;DHT22;62306;52.516;13.290;2023-12-28T04:38:08;8.40;99.90
73955;DHT22;62306;52.516;13.290;2023-12-28T04:40:36;8.50;99.90
73955;DHT22;62306;52.516;13.290;2023-12-28T04:43:03;8.50;99.90
73955;DHT22;62306;52.516;13.290;2023-12-28T04:45:30;8.50;99.90
73955;DHT22;62306;52.516;13.290;2023-12-28T04:47:57;8.50;99.90
73955;DHT22;62306;52.516;13.290;2023-12-28T04:50:24;8.50;99.90
73955;DHT22;62306;52.516;13.290;2023-12-28T04:52:51;8.60;99.90
73955;DHT22;62306;52.516;13.290;2023-12-28T04:55:18;8.60;99.90
73955;DHT22;62306;52.516;13.290;2023-12-28T04:57:47;8.60;99.90
73955;DHT22;62306;52.516;13.290;2023-12-28T05:00:15;8.70;99.90
73955;DHT22;62306;52.516;13.290;2023-12-28T05:02:42;8.70;99.90
73955;DHT22;62306;52.516;13.290;2023-12-28T05:05:11;8.70;99.90
73955;DHT22;62306;52.516;13.290;2023-12-28T05:07:38;8.70;99.90
73955;DHT22;62306;52.516;13.290;2023-12-28T05:10:06;8.70;99.90
73955;DHT22;62306;52.516;13.290;2023-12-28T05:12:33;8.60;99.90
73955;DHT22;62306;52.516;13.290;2023-12-28T05:15:01;8.60;99.90
73955;DHT22;62306;52.516;13.290;2023-12-28T05:17:28;8.60;99.90
73955;DHT22;62306;52.516;13.290;2023-12-28T05:19:55;8.60;99.90
73955;DHT22;62306;52.516;13.290;2023-12-28T05:22:22;8.60;99.90
73955;DHT22;62306;52.516;13.290;2023-12-28T05:24:49;8.60;99.90
73955;DHT22;62306;52.516;13.290;2023-12-28T05:27:16;8.60;99.90
73955;DHT22;62306;52.516;13.290;2023-12-28T05:29:43;8.60;99.90
73955;DHT22;62306;52.516;13.290;2023-12-28T05:32:11;8.50;99.90
73955;DHT22;62306;52.516;13.290;2023-12-28T05:34:38;8.50;99.90
73955;DHT22;62306;52.516;13.290;2023-12-28T05:37:05;8.60;99.90
73955;DHT22;62306;52.516;13.290;2023-12-28T05:39:32;8.50;99.90
73955;DHT22;62306;52.516;13.290;2023-12-28T05:41:59;8.60;99.90
73955;DHT22;62306;52.516;13.290;2023-12-28T05:44:25;8.60;99.90
73955;DHT22;62306;52.516;13.290;2023-12-28T05:46:52;8.60;99.90
73955;DHT22;62306;52.516;13.290;2023-12-28T05:49:21;8.60;99.90
73955;DHT22;62306;52.516;13.290;2023-12-28T05:51:47;8.60;99.90
73955;DHT22;62306;52.516;13.290;2023-12-28T05:54:14;8.60;99.90
73955;DHT22;62306;52.516;13.290;2023-12-28T05:56:41;8.60;99.90
73955;DHT22;62306;52.516;13.290;2023-12-28T05:59:08;8.60;99.90
73955;DHT22;62306;52.516;13.290;2023-12-28T06:01:41;8.70;99.90
73955;DHT22;62306;52.516;13.290;2023-12-28T06:04:09;8.60;99.90
73955;DHT22;62306;52.516;13.290;2023-12-28T06:06:37;8.60;99.90
73955;DHT22;62306;52.516;13.290;2023-12-28T06:09:04;8.70;99.90
73955;DHT22;62306;52.516;13.290;2023-12-28T06:11:31;8.80;99.90
73955;DHT22;62306;52.516;13.290;2023-12-28T06:13:58;8.80;99.90
73955;DHT22;62306;52.516;13.290;2023-12-28T06:16:25;8.80;99.90
73955;DHT22;62306;52.516;13.290;2023-12-28T06:18:52;8.80;99.90
73955;DHT22;62306;52.516;13.290;2023-12-28T06:21:18;8.80;99.90
73955;DHT22;62306;52.516;13.290;2023-12-28T06:23:47;8.80;99.90
73955;DHT22;62306;52.516;13.290;2023-12-28T06:26:14;8.80;99.90
73955;DHT22;62306;52.516;13.290;2023-12-28T06:28:41;8.80;99.90
73955;DHT22;62306;52.516;13.290;2023-12-28T06:31:08;8.80;99.90
73955;DHT22;62306;52.516;13.290;2023-12-28T06:33:35;8.70;99.90
73955;DHT22;62306;52.516;13.290;2023-12-28T06:36:05;8.70;99.90
73955;DHT22;62306;52.516;13.290;2023-12-28T06:38:32;8.70;99.90
73955;DHT22;62306;52.516;13.290;2023-12-28T06:41:00;8.70;99.90
73955;DHT22;62306;52.516;13.290;2023-12-28T06:43:27;8.70;99.90
73955;DHT22;62306;52.516;13.290;2023-12-28T06:45:54;8.70;99.90
73955;DHT22;62306;52.516;13.290;2023-12-28T06:48:21;8.70;99.90
73955;DHT22;62306;52.516;13.290;2023-12-28T06:50:48;8.60;99.90
73955;DHT22;62306;52.516;13.290;2023-12-28T06:53:15;8.70;99.90
73955;DHT22;62306;52.516;13.290;2023-12-28T06:55:42;8.60;99.90
73955;DHT22;62306;52.516;13.290;2023-12-28T06:58:10;8.60;99.90
73955;DHT22;62306;52.516;13.290;2023-12-28T07:00:37;8.70;99.90
73955;DHT22;62306;52.516;13.290;2023-12-28T07:03:04;8.70;99.90
73955;DHT22;62306;52.516;13.290;2023-12-28T07:05:31;8.70;99.90
73955;DHT22;62306;52.516;13.290;2023-12-28T07:07:58;8.70;99.90
73955;DHT22;62306;52.516;13.290;2023-12-28T07:10:25;8.60;99.90
73955;DHT22;62306;52.516;13.290;2023-12-28T07:12:52;8.60;99.90
73955;DHT22;62306;52.516;13.290;2023-12-28T07:15:20;8.60;99.90
73955;DHT22;62306;52.516;13.290;2023-12-28T07:17:47;8.60;99.90
73955;DHT22;62306;52.516;13.290;2023-12-28T07:20:14;8.60;99.90
73955;DHT22;62306;52.516;13.290;2023-12-28T07:22:41;8.60;99.90
73955;DHT22;62306;52.516;13.290;2023-12-28T07:25:08;8.60;99.90
73955;DHT22;62306;52.516;13.290;2023-12-28T07:27:35;8.60;99.90
73955;DHT22;62306;52.516;13.290;2023-12-28T07:30:03;8.60;99.90
73955;DHT22;62306;52.516;13.290;2023-12-28T07:32:32;8.60;99.90
73955;DHT22;62306;52.516;13.290;2023-12-28T07:34:59;8.60;99.90
73955;DHT22;62306;52.516;13.290;2023-12-28T07:37:25;8.60;99.90
73955;DHT22;62306;52.516;13.290;2023-12-28T07:39:52;8.60;99.90
73955;DHT22;62306;52.516;13.290;2023-12-28T07:42:19;8.60;99.90
73955;DHT22;62306;52.516;13.290;2023-12-28T07:44:46;8.60;99.90
73955;DHT22;62306;52.516;13.290;2023-12-28T07:47:13;8.60;99.90
73955;DHT22;62306;52.516;13.290;2023-12-28T07:49:42;8.60;99.90
73955;DHT22;62306;52.516;13.290;2023-12-28T07:52:09;8.50;99.90
73955;DHT22;62306;52.516;13.290;2023-12-28T07:54:35;8.50;99.90
73955;DHT22;62306;52.516;13.290;2023-12-28T07:57:02;8.60;99.90
73955;DHT22;62306;52.516;13.290;2023-12-28T08:01:57;8.60;99.90
73955;DHT22;62306;52.516;13.290;2023-12-28T08:04:24;8.60;99.90
73955;DHT22;62306;52.516;13.290;2023-12-28T08:06:52;8.70;99.90
73955;DHT22;62306;52.516;13.290;2023-12-28T08:09:19;8.70;99.90
73955;DHT22;62306;52.516;13.290;2023-12-28T08:11:46;8.80;99.90
73955;DHT22;62306;52.516;13.290;2023-12-28T08:14:13;8.70;99.90
73955;DHT22;62306;52.516;13.290;2023-12-28T08:16:40;8.80;99.90
73955;DHT22;62306;52.516;13.290;2023-12-28T08:19:07;8.80;99.90
73955;DHT22;62306;52.516;13.290;2023-12-28T08:21:34;8.80;99.90
73955;DHT22;62306;52.516;13.290;2023-12-28T08:24:02;9.00;99.90
73955;DHT22;62306;52.516;13.290;2023-12-28T08:26:29;8.90;99.90
73955;DHT22;62306;52.516;13.290;2023-12-28T08:28:58;9.00;99.90
73955;DHT22;62306;52.516;13.290;2023-12-28T08:31:25;9.00;99.90
73955;DHT22;62306;52.516;13.290;2023-12-28T08:33:52;9.00;99.90
73955;DHT22;62306;52.516;13.290;2023-12-28T08:36:18;9.00;99.90
73955;DHT22;62306;52.516;13.290;2023-12-28T08:38:45;9.10;99.90
73955;DHT22;62306;52.516;13.290;2023-12-28T08:41:19;9.10;99.90
73955;DHT22;62306;52.516;13.290;2023-12-28T08:43:46;9.20;99.90
73955;DHT22;62306;52.516;13.290;2023-12-28T08:46:13;9.10;99.90
73955;DHT22;62306;52.516;13.290;2023-12-28T08:48:41;9.20;99.90
73955;DHT22;62306;52.516;13.290;2023-12-28T08:51:10;9.10;99.90
73955;DHT22;62306;52.516;13.290;2023-12-28T08:53:37;9.10;99.90
73955;DHT22;62306;52.516;13.290;2023-12-28T08:56:13;9.10;99.90
73955;DHT22;62306;52.516;13.290;2023-12-28T08:58:41;9.20;99.90
73955;DHT22;62306;52.516;13.290;2023-12-28T09:01:08;9.30;99.90
73955;DHT22;62306;52.516;13.290;2023-12-28T09:03:35;9.30;99.90
73955;DHT22;62306;52.516;13.290;2023-12-28T09:06:02;9.30;99.90
73955;DHT22;62306;52.516;13.290;2023-12-28T09:08:29;9.40;99.90
73955;DHT22;62306;52.516;13.290;2023-12-28T09:10:56;9.40;99.90
73955;DHT22;62306;52.516;13.290;2023-12-28T09:13:23;9.40;99.90
73955;DHT22;62306;52.516;13.290;2023-12-28T09:15:51;9.40;99.90
73955;DHT22;62306;52.516;13.290;2023-12-28T09:18:18;9.40;99.90
73955;DHT22;62306;52.516;13.290;2023-12-28T09:20:45;9.40;99.90
73955;DHT22;62306;52.516;13.290;2023-12-28T09:23:12;9.40;99.90
73955;DHT22;62306;52.516;13.290;2023-12-28T09:25:40;9.40;99.90
73955;DHT22;62306;52.516;13.290;2023-12-28T09:28:07;9.50;99.90
73955;DHT22;62306;52.516;13.290;2023-12-28T09:30:34;9.40;99.90
73955;DHT22;62306;52.516;13.290;2023-12-28T09:33:02;9.40;99.90
73955;DHT22;62306;52.516;13.290;2023-12-28T09:35:29;9.40;99.90
73955;DHT22;62306;52.516;13.290;2023-12-28T09:37:56;9.40;99.90
73955;DHT22;62306;52.516;13.290;2023-12-28T09:40:24;9.40;99.90
73955;DHT22;62306;52.516;13.290;2023-12-28T09:42:57;9.40;99.90
73955;DHT22;62306;52.516;13.290;2023-12-28T09:45:27;9.30;99.90
73955;DHT22;62306;52.516;13.290;2023-12-28T09:47:54;9.20;99.90
73955;DHT22;62306;52.516;13.290;2023-12-28T09:50:22;9.10;99.90
73955;DHT22;62306;52.516;13.290;2023-12-28T09:52:52;9.20;99.90
73955;DHT22;62306;52.516;13.290;2023-12-28T09:55:18;9.20;99.90
73955;DHT22;62306;52.516;13.290;2023-12-28T09:57:46;9.20;99.90
73955;DHT22;62306;52.516;13.290;2023-12-28T10:00:13;9.20;99.90
73955;DHT22;62306;52.516;13.290;2023-12-28T10:02:40;9.20;99.90
73955;DHT22;62306;52.516;13.290;2023-12-28T10:05:12;9.30;99.90
73955;DHT22;62306;52.516;13.290;2023-12-28T10:07:45;9.30;99.90
73955;DHT22;62306;52.516;13.290;2023-12-28T10:10:12;9.40;99.90
73955;DHT22;62306;52.516;13.290;2023-12-28T10:12:39;9.40;99.90
73955;DHT22;62306;52.516;13.290;2023-12-28T10:15:06;9.40;99.90
73955;DHT22;62306;52.516;13.290;2023-12-28T10:17:33;9.50;99.90
73955;DHT22;62306;52.516;13.290;2023-12-28T10:20:01;9.50;99.90
73955;DHT22;62306;52.516;13.290;2023-12-28T10:22:30;9.50;99.90
73955;DHT22;62306;52.516;13.290;2023-12-28T10:24:59;9.60;99.90
73955;DHT22;62306;52.516;13.290;2023-12-28T10:27:26;9.60;99.90
73955;DHT22;62306;52.516;13.290;2023-12-28T10:29:54;9.60;99.90
73955;DHT22;62306;52.516;13.290;2023-12-28T10:32:21;9.60;99.90
73955;DHT22;62306;52.516;13.290;2023-12-28T10:34:51;9.70;99.90
73955;DHT22;62306;52.516;13.290;2023-12-28T10:37:19;9.80;99.90
73955;DHT22;62306;52.516;13.290;2023-12-28T10:39:47;9.80;99.90
73955;DHT22;62306;52.516;13.290;2023-12-28T10:42:26;9.90;99.90
73955;DHT22;62306;52.516;13.290;2023-12-28T10:45:02;9.90;99.90
73955;DHT22;62306;52.516;13.290;2023-12-28T10:47:31;9.90;99.90
73955;DHT22;62306;52.516;13.290;2023-12-28T10:50:02;10.00;99.90
73955;DHT22;62306;52.516;13.290;2023-12-28T10:52:31;10.10;99.90
73955;DHT22;62306;52.516;13.290;2023-12-28T10:55:19;10.10;99.90
73955;DHT22;62306;52.516;13.290;2023-12-28T10:57:54;10.10;99.90
73955;DHT22;62306;52.516;13.290;2023-12-28T11:00:24;10.10;99.90
73955;DHT22;62306;52.516;13.290;2023-12-28T11:02:53;10.20;99.90
73955;DHT22;62306;52.516;13.290;2023-12-28T11:05:21;10.20;99.90
73955;DHT22;62306;52.516;13.290;2023-12-28T11:07:50;10.20;99.90
73955;DHT22;62306;52.516;13.290;2023-12-28T11:10:20;10.30;99.90
73955;DHT22;62306;52.516;13.290;2023-12-28T11:12:51;10.40;99.90
73955;DHT22;62306;52.516;13.290;2023-12-28T11:15:19;10.40;99.90
73955;DHT22;62306;52.516;13.290;2023-12-28T11:17:47;10.50;99.90
73955;DHT22;62306;52.516;13.290;2023-12-28T11:20:15;10.40;99.90
73955;DHT22;62306;52.516;13.290;2023-12-28T11:22:44;10.50;99.90
73955;DHT22;62306;52.516;13.290;2023-12-28T11:25:16;10.50;99.90
73955;DHT22;62306;52.516;13.290;2023-12-28T11:27:44;10.50;99.90
73955;DHT22;62306;52.516;13.290;2023-12-28T11:30:14;10.60;99.90
73955;DHT22;62306;52.516;13.290;2023-12-28T11:32:41;10.70;99.90
73955;DHT22;62306;52.516;13.290;2023-12-28T11:35:11;10.60;99.90
73955;DHT22;62306;52.516;13.290;2023-12-28T11:37:41;10.70;99.90
73955;DHT22;62306;52.516;13.290;2023-12-28T11:40:10;10.80;99.90
73955;DHT22;62306;52.516;13.290;2023-12-28T11:42:47;10.70;99.90
73955;DHT22;62306;52.516;13.290;2023-12-28T11:45:16;10.70;99.90
73955;DHT22;62306;52.516;13.290;2023-12-28T11:47:43;10.80;99.90
73955;DHT22;62306;52.516;13.290;2023-12-28T11:50:11;10.80;99.90
73955;DHT22;62306;52.516;13.290;2023-12-28T11:52:38;10.70;99.90
73955;DHT22;62306;52.516;13.290;2023-12-28T11:55:06;10.80;99.90
73955;DHT22;62306;52.516;13.290;2023-12-28T11:57:33;9.90;99.90
73955;DHT22;62306;52.516;13.290;2023-12-28T12:00:01;10.90;99.90
73955;DHT22;62306;52.516;13.290;2023-12-28T12:02:31;10.90;99.90
73955;DHT22;62306;52.516;13.290;2023-12-28T12:04:58;11.00;99.90
73955;DHT22;62306;52.516;13.290;2023-12-28T12:07:27;11.00;99.90
73955;DHT22;62306;52.516;13.290;2023-12-28T12:09:58;11.00;99.90
73955;DHT22;62306;52.516;13.290;2023-12-28T12:12:25;11.00;99.90
73955;DHT22;62306;52.516;13.290;2023-12-28T12:14:52;11.00;99.90
73955;DHT22;62306;52.516;13.290;2023-12-28T12:17:19;11.00;99.90
73955;DHT22;62306;52.516;13.290;2023-12-28T12:19:47;11.00;99.90
73955;DHT22;62306;52.516;13.290;2023-12-28T12:22:17;11.00;99.90
73955;DHT22;62306;52.516;13.290;2023-12-28T12:24:45;11.00;99.90
73955;DHT22;62306;52.516;13.290;2023-12-28T12:27:13;11.00;99.90
73955;DHT22;62306;52.516;13.290;2023-12-28T12:29:40;11.00;99.90
73955;DHT22;62306;52.516;13.290;2023-12-28T12:32:07;11.20;99.90
73955;DHT22;62306;52.516;13.290;2023-12-28T12:34:35;11.20;99.90
73955;DHT22;62306;52.516;13.290;2023-12-28T12:37:03;11.20;99.90
73955;DHT22;62306;52.516;13.290;2023-12-28T12:39:31;11.20;99.90
73955;DHT22;62306;52.516;13.290;2023-12-28T12:41:58;11.10;99.90
73955;DHT22;62306;52.516;13.290;2023-12-28T12:44:25;11.10;99.90
73955;DHT22;62306;52.516;13.290;2023-12-28T12:46:58;10.90;99.90
73955;DHT22;62306;52.516;13.290;2023-12-28T12:49:25;10.80;99.90
73955;DHT22;62306;52.516;13.290;2023-12-28T12:51:53;10.90;99.90
73955;DHT22;62306;52.516;13.290;2023-12-28T12:54:21;10.80;99.90
73955;DHT22;62306;52.516;13.290;2023-12-28T12:56:50;10.90;99.90
73955;DHT22;62306;52.516;13.290;2023-12-28T12:59:18;11.00;99.90
73955;DHT22;62306;52.516;13.290;2023-12-28T13:01:45;11.00;99.90
73955;DHT22;62306;52.516;13.290;2023-12-28T13:04:14;11.10;99.90
73955;DHT22;62306;52.516;13.290;2023-12-28T13:06:42;11.10;99.90
73955;DHT22;62306;52.516;13.290;2023-12-28T13:09:09;11.10;99.90
73955;DHT22;62306;52.516;13.290;2023-12-28T13:11:38;11.10;99.90
73955;DHT22;62306;52.516;13.290;2023-12-28T13:14:05;11.20;99.90
73955;DHT22;62306;52.516;13.290;2023-12-28T13:16:32;11.10;99.90
73955;DHT22;62306;52.516;13.290;2023-12-28T13:18:59;11.10;99.90
73955;DHT22;62306;52.516;13.290;2023-12-28T13:21:26;11.10;99.90
73955;DHT22;62306;52.516;13.290;2023-12-28T13:23:53;11.10;99.90
73955;DHT22;62306;52.516;13.290;2023-12-28T13:26:20;11.10;99.90
73955;DHT22;62306;52.516;13.290;2023-12-28T13:28:48;11.10;99.90
73955;DHT22;62306;52.516;13.290;2023-12-28T13:31:15;11.10;99.90
73955;DHT22;62306;52.516;13.290;2023-12-28T13:33:44;11.00;99.90
73955;DHT22;62306;52.516;13.290;2023-12-28T13:36:11;11.00;99.90
73955;DHT22;62306;52.516;13.290;2023-12-28T13:38:38;11.00;99.90
73955;DHT22;62306;52.516;13.290;2023-12-28T13:41:05;11.00;99.90
73955;DHT22;62306;52.516;13.290;2023-12-28T13:43:32;11.00;99.90
73955;DHT22;62306;52.516;13.290;2023-12-28T13:46:01;11.00;99.90
73955;DHT22;62306;52.516;13.290;2023-12-28T13:48:29;11.00;99.90
73955;DHT22;62306;52.516;13.290;2023-12-28T13:50:56;11.10;99.90
73955;DHT22;62306;52.516;13.290;2023-12-28T13:53:23;11.10;99.90
73955;DHT22;62306;52.516;13.290;2023-12-28T13:55:50;11.20;99.90
73955;DHT22;62306;52.516;13.290;2023-12-28T13:58:17;11.20;99.90
73955;DHT22;62306;52.516;13.290;2023-12-28T14:00:43;11.10;99.90
73955;DHT22;62306;52.516;13.290;2023-12-28T14:03:12;11.10;99.90
73955;DHT22;62306;52.516;13.290;2023-12-28T14:05:39;11.00;99.90
73955;DHT22;62306;52.516;13.290;2023-12-28T14:08:07;11.00;99.90
73955;DHT22;62306;52.516;13.290;2023-12-28T14:10:34;10.90;99.90
73955;DHT22;62306;52.516;13.290;2023-12-28T14:13:01;10.90;99.90
73955;DHT22;62306;52.516;13.290;2023-12-28T14:15:30;10.90;99.90
73955;DHT22;62306;52.516;13.290;2023-12-28T14:17:57;10.90;99.90
73955;DHT22;62306;52.516;13.290;2023-12-28T14:20:25;10.80;99.90
73955;DHT22;62306;52.516;13.290;2023-12-28T14:22:53;10.70;99.90
73955;DHT22;62306;52.516;13.290;2023-12-28T14:25:21;10.70;99.90
73955;DHT22;62306;52.516;13.290;2023-12-28T14:27:48;10.70;99.90
73955;DHT22;62306;52.516;13.290;2023-12-28T14:30:16;10.60;99.90
73955;DHT22;62306;52.516;13.290;2023-12-28T14:32:44;10.50;99.90
73955;DHT22;62306;52.516;13.290;2023-12-28T14:35:12;10.50;99.90
73955;DHT22;62306;52.516;13.290;2023-12-28T14:37:42;10.40;99.90
73955;DHT22;62306;52.516;13.290;2023-12-28T14:40:10;10.40;99.90
73955;DHT22;62306;52.516;13.290;2023-12-28T14:42:37;10.40;99.90
73955;DHT22;62306;52.516;13.290;2023-12-28T14:45:05;10.20;99.90
73955;DHT22;62306;52.516;13.290;2023-12-28T14:47:32;10.20;99.90
73955;DHT22;62306;52.516;13.290;2023-12-28T14:49:59;10.20;99.90
73955;DHT22;62306;52.516;13.290;2023-12-28T14:52:27;10.20;99.90
73955;DHT22;62306;52.516;13.290;2023-12-28T14:54:56;10.20;99.90
73955;DHT22;62306;52.516;13.290;2023-12-28T14:57:23;10.20;99.90
73955;DHT22;62306;52.516;13.290;2023-12-28T14:59:50;10.20;99.90
73955;DHT22;62306;52.516;13.290;2023-12-28T15:02:17;10.20;99.90
73955;DHT22;62306;52.516;13.290;2023-12-28T15:04:44;10.20;99.90
73955;DHT22;62306;52.516;13.290;2023-12-28T15:07:11;10.20;99.90
73955;DHT22;62306;52.516;13.290;2023-12-28T15:09:38;10.10;99.90
73955;DHT22;62306;52.516;13.290;2023-12-28T15:12:07;10.00;99.90
73955;DHT22;62306;52.516;13.290;2023-12-28T15:14:35;9.90;99.90
73955;DHT22;62306;52.516;13.290;2023-12-28T15:17:02;9.90;99.90
73955;DHT22;62306;52.516;13.290;2023-12-28T15:19:30;9.90;99.90
73955;DHT22;62306;52.516;13.290;2023-12-28T15:21:58;9.80;99.90
73955;DHT22;62306;52.516;13.290;2023-12-28T15:24:26;9.80;99.90
73955;DHT22;62306;52.516;13.290;2023-12-28T15:26:52;9.70;99.90
73955;DHT22;62306;52.516;13.290;2023-12-28T15:29:21;9.70;99.90
73955;DHT22;62306;52.516;13.290;2023-12-28T15:31:47;9.70;99.90
73955;DHT22;62306;52.516;13.290;2023-12-28T15:34:14;9.60;99.90